createdAt,value
2023-07-12T00:03:00.319Z,85.32
2023-07-12T00:08:03.741Z,86.04
2023-07-12T00:13:05.519Z,85.71
2023-07-12T00:18:14.950Z,88.08
2023-07-12T00:23:18.206Z,89.54
2023-07-12T00:28:24.503Z,90.05
2023-07-12T00:33:26.188Z,89.65
2023-07-12T00:38:28.096Z,89.32
2023-07-12T00:43:42.680Z,89.09
2023-07-12T00:48:48.114Z,88.34
2023-07-12T00:53:49.867Z,88.69
2023-07-12T00:59:04.500Z,88.52
2023-07-12T01:04:09.027Z,88.43
2023-07-12T01:09:14.697Z,88.27
2023-07-12T01:14:18.300Z,87.99
2023-07-12T01:19:20.246Z,87.31
2023-07-12T01:24:24.753Z,88.00
2023-07-12T01:29:29.304Z,87.86
2023-07-12T01:34:31.220Z,87.77
2023-07-12T01:39:36.500Z,88.25
2023-07-12T01:44:39.206Z,88.35
2023-07-12T01:49:41.475Z,88.30
2023-07-12T01:54:43.373Z,89.44
2023-07-12T01:59:45.476Z,88.78
2023-07-12T02:04:47.637Z,88.89
2023-07-12T02:10:16.435Z,89.48
2023-07-12T02:15:19.934Z,89.09
2023-07-12T02:20:22.268Z,88.73
2023-07-12T02:25:24.447Z,89.36
2023-07-12T02:30:29.060Z,88.79
2023-07-12T02:35:32.715Z,88.96
2023-07-12T02:40:34.593Z,89.51
2023-07-12T02:45:36.498Z,90.41
2023-07-12T02:50:38.390Z,91.59
2023-07-12T02:55:40.235Z,91.14
2023-07-12T03:00:42.886Z,91.23
2023-07-12T03:05:44.648Z,91.52
2023-07-12T03:10:46.845Z,91.97
2023-07-12T03:15:50.872Z,92.22
2023-07-12T03:20:52.686Z,92.19
2023-07-12T03:25:54.501Z,91.88
2023-07-12T03:31:12.336Z,92.32
2023-07-12T03:36:16.339Z,92.18
2023-07-12T03:41:21.695Z,91.85
2023-07-12T03:46:23.814Z,92.09
2023-07-12T03:51:25.732Z,92.61
2023-07-12T03:56:27.591Z,92.43
2023-07-12T04:01:30.133Z,93.08
2023-07-12T04:06:32.374Z,92.94
2023-07-12T04:11:36.894Z,93.18
2023-07-12T04:16:38.917Z,93.21
2023-07-12T04:21:40.668Z,92.95
2023-07-12T04:26:42.400Z,92.79
2023-07-12T04:31:44.384Z,92.69
2023-07-12T04:36:46.192Z,92.38
2023-07-12T04:41:47.951Z,92.19
2023-07-12T04:46:49.927Z,91.83
2023-07-12T04:51:51.703Z,90.75
2023-07-12T04:56:53.462Z,90.79
2023-07-12T05:01:55.423Z,90.73
2023-07-12T05:06:57.573Z,90.89
2023-07-12T05:11:59.275Z,90.77
2023-07-12T05:17:01.065Z,90.71
2023-07-12T05:22:02.982Z,91.25
2023-07-12T05:27:05.289Z,90.73
2023-07-12T05:32:07.318Z,90.85
2023-07-12T05:37:11.081Z,90.83
2023-07-12T05:42:12.982Z,90.69
2023-07-12T05:47:14.976Z,90.13
2023-07-12T05:52:17.182Z,90.07
2023-07-12T05:57:18.930Z,89.68
2023-07-12T06:02:20.671Z,90.32
2023-07-12T06:07:22.640Z,90.46
2023-07-12T06:12:25.320Z,90.16
2023-07-12T06:17:27.198Z,89.90
2023-07-12T06:22:29.274Z,89.67
2023-07-12T06:27:31.117Z,89.33
2023-07-12T06:32:34.252Z,89.05
2023-07-12T06:37:36.010Z,89.14
2023-07-12T06:42:38.121Z,89.83
2023-07-12T06:47:39.874Z,90.98
2023-07-12T06:52:41.702Z,91.95
2023-07-12T06:57:43.452Z,92.44
2023-07-12T07:02:45.275Z,92.28
2023-07-12T07:07:47.222Z,88.70
2023-07-12T07:12:49.136Z,88.42
2023-07-12T07:17:50.881Z,88.14
2023-07-12T07:22:52.702Z,88.15
2023-07-12T07:27:56.100Z,87.44
2023-07-12T07:32:59.513Z,87.41
2023-07-12T07:38:01.451Z,88.08
2023-07-12T07:43:03.298Z,86.96
2023-07-12T07:48:05.633Z,86.40
2023-07-12T07:53:07.541Z,84.98
2023-07-12T07:58:10.975Z,86.86
2023-07-12T08:03:12.992Z,85.88
2023-07-12T08:08:15.166Z,85.24
2023-07-12T08:13:17.375Z,84.85
2023-07-12T08:18:19.561Z,83.13
2023-07-12T08:23:22.046Z,81.96
2023-07-12T08:28:23.748Z,81.43
2023-07-12T08:33:25.831Z,80.58
2023-07-12T08:38:32.285Z,79.85
2023-07-12T08:43:34.936Z,80.39
2023-07-12T08:48:37.034Z,79.14
2023-07-12T08:53:42.096Z,78.01
2023-07-12T08:58:51.601Z,77.04
2023-07-12T09:03:53.401Z,74.55
2023-07-12T09:08:55.772Z,75.02
2023-07-12T09:13:58.619Z,73.82
2023-07-12T09:19:13.438Z,72.48
2023-07-12T09:24:24.276Z,71.47
2023-07-12T09:29:28.599Z,70.61
2023-07-12T09:34:37.899Z,70.28
2023-07-12T09:39:39.884Z,68.93
2023-07-12T09:44:43.460Z,68.96
2023-07-12T09:50:05.446Z,69.31
2023-07-12T09:55:33.352Z,68.56
2023-07-12T10:00:44.021Z,68.33
2023-07-12T10:05:56.130Z,67.84
2023-07-12T10:11:06.590Z,67.02
2023-07-12T10:16:31.399Z,67.05
2023-07-12T10:21:33.625Z,66.93
2023-07-12T10:26:36.918Z,67.46
2023-07-12T10:31:49.470Z,66.12
2023-07-12T10:36:56.032Z,65.97
2023-07-12T10:42:08.080Z,65.40
2023-07-12T10:47:16.808Z,66.00
2023-07-12T10:52:28.617Z,64.13
2023-07-12T10:57:51.604Z,64.41
2023-07-12T11:03:17.118Z,64.60
2023-07-12T11:08:31.096Z,63.85
2023-07-12T11:13:35.286Z,61.92
2023-07-12T11:18:38.775Z,62.76
2023-07-12T11:23:43.865Z,62.70
2023-07-12T11:28:45.665Z,58.87
2023-07-12T11:34:15.704Z,59.33
2023-07-12T11:39:19.792Z,59.30
2023-07-12T11:44:21.658Z,59.59
2023-07-12T11:49:29.144Z,58.75
2023-07-12T11:54:39.092Z,59.52
2023-07-12T11:59:45.740Z,58.40
2023-07-12T12:04:51.745Z,58.61
2023-07-12T12:09:55.546Z,57.51
2023-07-12T12:14:58.366Z,58.63
2023-07-12T12:20:33.368Z,59.11
2023-07-12T12:26:12.945Z,59.48
2023-07-12T12:31:14.774Z,58.81
2023-07-12T12:36:28.788Z,59.26
2023-07-12T12:41:37.326Z,58.18
2023-07-12T13:07:02.979Z,62.25
2023-07-12T13:22:25.546Z,64.16
2023-07-12T13:27:34.151Z,64.05
2023-07-12T13:32:35.994Z,64.16
2023-07-12T13:37:43.071Z,65.62
2023-07-12T13:42:57.204Z,66.72
2023-07-12T13:48:00.250Z,67.99
2023-07-12T13:53:02.191Z,70.50
2023-07-12T13:58:14.144Z,71.27
2023-07-12T14:03:22.181Z,70.24
2023-07-12T14:08:37.360Z,69.69
2023-07-12T14:13:40.331Z,69.77
2023-07-12T14:18:42.563Z,71.07
2023-07-12T14:23:44.683Z,72.08
2023-07-12T14:28:55.325Z,72.91
2023-07-12T14:33:57.954Z,74.13
2023-07-12T14:39:01.684Z,75.45
2023-07-12T14:44:15.567Z,74.88
2023-07-12T14:49:17.744Z,74.41
2023-07-12T14:54:21.891Z,74.45
2023-07-12T14:59:23.814Z,73.24
2023-07-12T15:04:26.388Z,73.77
2023-07-12T15:09:28.456Z,74.77
2023-07-12T15:14:30.253Z,75.45
2023-07-12T15:19:33.260Z,76.20
2023-07-12T15:24:35.563Z,76.82
2023-07-12T15:29:37.608Z,77.74
2023-07-12T15:34:39.846Z,79.56
2023-07-12T15:39:47.809Z,80.37
2023-07-12T15:44:52.987Z,80.86
2023-07-12T15:49:55.072Z,80.96
2023-07-12T15:54:57.004Z,81.29
2023-07-12T15:59:59.393Z,81.61
2023-07-12T16:05:03.643Z,81.98
2023-07-12T16:10:06.044Z,81.98
2023-07-12T16:15:17.591Z,81.98
2023-07-12T16:20:20.394Z,81.44
2023-07-12T16:25:24.846Z,81.28
2023-07-12T16:30:27.217Z,81.29
2023-07-12T16:35:29.093Z,81.90
2023-07-12T16:40:31.013Z,83.11
2023-07-12T16:45:32.824Z,83.00
2023-07-12T16:50:35.150Z,84.51
2023-07-12T16:55:38.570Z,85.74
2023-07-12T17:00:41.842Z,85.54
2023-07-12T17:05:44.802Z,85.05
2023-07-12T17:10:46.899Z,85.06
2023-07-12T17:15:48.691Z,85.03
2023-07-12T17:20:54.931Z,84.75
2023-07-12T17:25:59.586Z,84.83
2023-07-12T17:31:12.822Z,84.12
2023-07-12T17:36:19.110Z,84.27
2023-07-12T17:41:26.261Z,84.22
2023-07-12T17:46:28.740Z,84.58
2023-07-12T17:51:30.593Z,85.19
2023-07-12T17:56:32.308Z,86.71
2023-07-12T18:01:34.132Z,87.41
2023-07-12T18:06:36.138Z,86.76
2023-07-12T18:11:41.477Z,86.22
2023-07-12T18:16:43.723Z,85.78
2023-07-12T18:21:45.615Z,85.24
2023-07-12T18:26:48.962Z,84.99
2023-07-12T18:31:51.720Z,84.95
2023-07-12T18:36:53.650Z,84.79
2023-07-12T18:41:57.421Z,85.45
2023-07-12T18:46:59.898Z,84.93
2023-07-12T18:52:01.830Z,85.01
2023-07-12T18:57:04.676Z,84.88
2023-07-12T19:02:15.621Z,84.93
2023-07-12T19:07:23.872Z,84.96
2023-07-12T19:12:26.048Z,85.32
2023-07-12T19:17:27.958Z,87.23
2023-07-12T19:22:29.803Z,87.70
2023-07-12T19:27:42.708Z,87.84
2023-07-12T19:32:45.679Z,88.35
2023-07-12T19:37:48.213Z,87.52
2023-07-12T19:42:54.079Z,87.02
2023-07-12T19:47:56.085Z,87.38
2023-07-12T19:52:58.363Z,88.51
2023-07-12T19:58:00.345Z,89.55
2023-07-12T20:03:02.517Z,89.93
2023-07-12T20:08:05.337Z,90.80
2023-07-12T20:13:09.649Z,92.70
2023-07-12T20:18:13.239Z,93.12
2023-07-12T20:23:15.212Z,93.21
2023-07-12T20:28:18.569Z,92.49
2023-07-12T20:33:22.469Z,92.67
2023-07-12T20:38:24.148Z,93.00
2023-07-12T20:43:26.157Z,94.72
2023-07-12T20:48:36.069Z,94.98
2023-07-12T20:53:39.201Z,95.24
2023-07-12T20:58:41.143Z,95.20
2023-07-12T21:03:44.057Z,94.80
2023-07-12T21:08:47.049Z,94.49
2023-07-12T21:13:49.047Z,95.51
2023-07-12T21:18:52.728Z,95.17
2023-07-12T21:23:54.791Z,94.33
2023-07-12T21:28:56.784Z,94.96
2023-07-12T21:33:59.467Z,95.45
2023-07-12T21:39:01.635Z,95.41
2023-07-12T21:44:03.579Z,94.73
2023-07-12T21:49:05.448Z,94.44
2023-07-12T21:54:07.443Z,94.21
2023-07-12T21:59:09.508Z,94.09
2023-07-12T22:04:11.578Z,94.11
2023-07-12T22:09:14.289Z,93.05
2023-07-12T22:14:16.713Z,91.88
2023-07-12T22:19:18.734Z,92.70
2023-07-12T22:24:20.607Z,92.22
2023-07-12T22:29:23.109Z,92.31
2023-07-12T22:34:26.006Z,91.47
2023-07-12T22:39:29.033Z,91.32
2023-07-12T22:44:30.935Z,91.27
2023-07-12T22:49:32.777Z,90.87
2023-07-12T22:54:34.942Z,90.39
2023-07-12T22:59:37.396Z,91.07
2023-07-12T23:04:39.374Z,91.23
2023-07-12T23:09:42.415Z,90.99
2023-07-12T23:14:44.712Z,91.17
2023-07-12T23:19:47.172Z,91.74
2023-07-12T23:24:50.418Z,91.68
2023-07-12T23:29:52.314Z,92.22
2023-07-12T23:34:54.096Z,92.63
2023-07-12T23:39:57.223Z,92.58
2023-07-12T23:44:59.087Z,92.79
2023-07-12T23:50:01.862Z,93.14
2023-07-12T23:55:04.314Z,93.54
